Tropical Cyclones
[Index]
Main Index Home Page Stock Weather Photos Extreme Storms Discussion Storm News and Storm Chasing Reports Tropical Cyclones / Hurricanes / Typhoons Weather Data and Links Wild Fires / Bushfires Weather Observation Techniques Weather Picture Catalogue Tornado Pictures and Reports Stock Video Footage and DVDs for sale
Season 1998-1999 Tropical Cyclone ELLA Track Map
Season 1998-1999 Summaries: [BoM-AU] [JTWC-AU] [JTWC-SIO] [JTWC-SPAC] [JTWC-SH]
<<- Previous TC | JTWC 1998-1999 Season | Next TC ->>

click for intensity scale information  Lat/long Grid: Show Hide

 Date Labels: Show Hide

Joint Typhoon Warning Centre Cyclone Data

Name: ELLA

08 Feb 1999 18:00 UTC to 14 Feb 1999 12:00 UTC

    date/time    lat    long     hPa   cat  kts
1999-02-08 18   13.1   160.1                  25          
1999-02-09 00   13.1   160.3                  25          
1999-02-09 06   13.0   160.4                  25          
1999-02-09 12   12.8   160.4                  20          
1999-02-09 18   12.2   160.6                  25          
1999-02-10 00   11.7   160.8                  35          
1999-02-10 06   11.3   161.0                  35          
1999-02-10 12   11.1   161.5                  35          
1999-02-10 18   11.0   162.4                  35          
1999-02-11 00   11.3   163.2                  35          
1999-02-11 06   12.1   164.1            1     40          
1999-02-11 12   13.5   164.6            1     45          
1999-02-11 18   15.2   165.1            1     40          
1999-02-12 00   17.0   165.5            1     40          
1999-02-12 06   19.0   166.0            1     40          
1999-02-12 12   20.6   166.6            1     45          
1999-02-12 18   21.9   167.6            1     45          
1999-02-13 00   23.2   168.7            1     40          
1999-02-13 06   24.3   169.5            1     40          
1999-02-13 12   25.0   170.0                  35          
1999-02-13 18   25.6   170.1                  30          
1999-02-14 00   26.1   170.2                  30          
1999-02-14 06   26.6   170.3                  25          
1999-02-14 12   27.2   170.4                  20          
Winds are 1-min average.

Tropical cyclone tracks developed by Michael Bath using data from the Joint Typhoon Warning Centre Best Tracks and Google Maps.


[Australian Severe Weather index] [Copyright Notice] [Email Contacts] [Search This Site] [Privacy Policy]
Document: tropical_cyclone_ella.htm Updated: 18 September 2016